sensor_id;sensor_type;location;lat;lon;timestamp;pressure;altitude;pressure_sealevel;temperature;humidity
8075;BME280;4080;42.676;23.372;2023-05-07T00:01:34;95332.28;;;11.27;100.00
8075;BME280;4080;42.676;23.372;2023-05-07T00:04:01;95334.16;;;11.21;100.00
8075;BME280;4080;42.676;23.372;2023-05-07T00:06:28;95331.25;;;11.17;100.00
8075;BME280;4080;42.676;23.372;2023-05-07T00:08:56;95339.44;;;11.11;100.00
8075;BME280;4080;42.676;23.372;2023-05-07T00:11:22;95345.75;;;11.10;100.00
8075;BME280;4080;42.676;23.372;2023-05-07T00:13:49;95348.13;;;11.11;100.00
8075;BME280;4080;42.676;23.372;2023-05-07T00:16:17;95339.44;;;11.11;100.00
8075;BME280;4080;42.676;23.372;2023-05-07T00:18:44;95347.63;;;11.14;100.00
8075;BME280;4080;42.676;23.372;2023-05-07T00:21:11;95331.78;;;11.09;100.00
8075;BME280;4080;42.676;23.372;2023-05-07T00:23:38;95338.38;;;11.17;100.00
8075;BME280;4080;42.676;23.372;2023-05-07T00:26:05;95337.84;;;11.15;100.00
8075;BME280;4080;42.676;23.372;2023-05-07T00:28:31;95328.06;;;11.15;100.00
8075;BME280;4080;42.676;23.372;2023-05-07T00:30:58;95337.31;;;11.13;100.00
8075;BME280;4080;42.676;23.372;2023-05-07T00:33:26;95331.75;;;10.99;100.00
8075;BME280;4080;42.676;23.372;2023-05-07T00:35:53;95328.56;;;10.97;100.00
8075;BME280;4080;42.676;23.372;2023-05-07T00:38:20;95338.84;;;10.94;100.00
8075;BME280;4080;42.676;23.372;2023-05-07T00:40:47;95339.38;;;10.91;100.00
8075;BME280;4080;42.676;23.372;2023-05-07T00:43:13;95314.56;;;10.81;100.00
8075;BME280;4080;42.676;23.372;2023-05-07T00:45:40;95338.06;;;10.88;100.00
8075;BME280;4080;42.676;23.372;2023-05-07T00:48:07;95339.38;;;10.85;100.00
8075;BME280;4080;42.676;23.372;2023-05-07T00:50:35;95339.38;;;10.80;100.00
8075;BME280;4080;42.676;23.372;2023-05-07T00:53:02;95341.47;;;10.78;100.00
8075;BME280;4080;42.676;23.372;2023-05-07T00:55:29;95341.22;;;10.85;100.00
8075;BME280;4080;42.676;23.372;2023-05-07T00:57:56;95345.97;;;10.88;100.00
8075;BME280;4080;42.676;23.372;2023-05-07T01:00:23;95345.97;;;10.88;100.00
8075;BME280;4080;42.676;23.372;2023-05-07T01:02:50;95346.78;;;10.88;100.00
8075;BME280;4080;42.676;23.372;2023-05-07T01:05:19;95347.28;;;10.85;100.00
8075;BME280;4080;42.676;23.372;2023-05-07T01:07:49;95350.47;;;10.93;100.00
8075;BME280;4080;42.676;23.372;2023-05-07T01:10:17;95351.25;;;10.88;100.00
8075;BME280;4080;42.676;23.372;2023-05-07T01:12:44;95349.38;;;10.73;100.00
8075;BME280;4080;42.676;23.372;2023-05-07T01:15:12;95334.53;;;10.57;100.00
8075;BME280;4080;42.676;23.372;2023-05-07T01:17:40;95336.38;;;10.51;100.00
8075;BME280;4080;42.676;23.372;2023-05-07T01:20:08;95350.38;;;10.57;100.00
8075;BME280;4080;42.676;23.372;2023-05-07T01:22:38;95345.88;;;10.57;100.00
8075;BME280;4080;42.676;23.372;2023-05-07T01:25:06;95346.94;;;10.56;100.00
8075;BME280;4080;42.676;23.372;2023-05-07T01:27:33;95342.47;;;10.62;100.00
8075;BME280;4080;42.676;23.372;2023-05-07T01:30:01;95341.16;;;10.65;100.00
8075;BME280;4080;42.676;23.372;2023-05-07T01:32:31;95340.38;;;10.69;100.00
8075;BME280;4080;42.676;23.372;2023-05-07T01:35:00;95345.66;;;10.69;100.00
8075;BME280;4080;42.676;23.372;2023-05-07T01:37:28;95344.84;;;10.69;100.00
8075;BME280;4080;42.676;23.372;2023-05-07T01:39:57;95335.88;;;10.65;100.00
8075;BME280;4080;42.676;23.372;2023-05-07T01:42:24;95333.50;;;10.68;100.00
8075;BME280;4080;42.676;23.372;2023-05-07T01:44:51;95330.09;;;10.68;100.00
8075;BME280;4080;42.676;23.372;2023-05-07T01:47:18;95330.34;;;10.66;100.00
8075;BME280;4080;42.676;23.372;2023-05-07T01:49:44;95324.00;;;10.67;100.00
8075;BME280;4080;42.676;23.372;2023-05-07T01:52:11;95325.84;;;10.62;100.00
8075;BME280;4080;42.676;23.372;2023-05-07T01:54:38;95328.75;;;10.60;100.00
8075;BME280;4080;42.676;23.372;2023-05-07T01:57:06;95325.31;;;10.54;100.00
8075;BME280;4080;42.676;23.372;2023-05-07T01:59:32;95319.50;;;10.47;100.00
8075;BME280;4080;42.676;23.372;2023-05-07T02:01:59;95311.81;;;10.41;100.00
8075;BME280;4080;42.676;23.372;2023-05-07T02:04:26;95315.47;;;10.35;100.00
8075;BME280;4080;42.676;23.372;2023-05-07T02:06:53;95310.19;;;10.30;100.00
8075;BME280;4080;42.676;23.372;2023-05-07T02:09:21;95310.72;;;10.32;100.00
8075;BME280;4080;42.676;23.372;2023-05-07T02:11:48;95303.09;;;10.40;100.00
8075;BME280;4080;42.676;23.372;2023-05-07T02:14:16;95294.94;;;10.42;100.00
8075;BME280;4080;42.676;23.372;2023-05-07T02:16:43;95292.84;;;10.44;100.00
8075;BME280;4080;42.676;23.372;2023-05-07T02:19:10;95288.63;;;10.48;100.00
8075;BME280;4080;42.676;23.372;2023-05-07T02:21:36;95298.13;;;10.54;100.00
8075;BME280;4080;42.676;23.372;2023-05-07T02:24:03;95301.03;;;10.52;100.00
8075;BME280;4080;42.676;23.372;2023-05-07T02:26:30;95292.34;;;10.52;100.00
8075;BME280;4080;42.676;23.372;2023-05-07T02:28:57;95298.13;;;10.54;100.00
8075;BME280;4080;42.676;23.372;2023-05-07T02:31:25;95303.44;;;10.59;100.00
8075;BME280;4080;42.676;23.372;2023-05-07T02:33:51;95304.50;;;10.63;100.00
8075;BME280;4080;42.676;23.372;2023-05-07T02:36:18;95282.31;;;10.54;100.00
8075;BME280;4080;42.676;23.372;2023-05-07T02:38:45;95293.41;;;10.66;100.00
8075;BME280;4080;42.676;23.372;2023-05-07T02:41:11;95296.31;;;10.70;100.00
8075;BME280;4080;42.676;23.372;2023-05-07T02:43:38;95298.16;;;10.64;100.00
8075;BME280;4080;42.676;23.372;2023-05-07T02:46:06;95296.09;;;10.81;100.00
8075;BME280;4080;42.676;23.372;2023-05-07T02:48:35;95300.84;;;10.84;100.00
8075;BME280;4080;42.676;23.372;2023-05-07T02:51:02;95287.38;;;10.81;100.00
8075;BME280;4080;42.676;23.372;2023-05-07T02:53:29;95297.69;;;10.87;100.00
8075;BME280;4080;42.676;23.372;2023-05-07T02:55:57;95299.78;;;10.91;100.00
8075;BME280;4080;42.676;23.372;2023-05-07T02:58:24;95292.66;;;10.91;100.00
8075;BME280;4080;42.676;23.372;2023-05-07T03:00:51;95287.13;;;10.93;100.00
8075;BME280;4080;42.676;23.372;2023-05-07T03:03:18;95308.25;;;10.87;100.00
8075;BME280;4080;42.676;23.372;2023-05-07T03:05:46;95301.38;;;10.86;100.00
8075;BME280;4080;42.676;23.372;2023-05-07T03:08:12;95304.00;;;10.86;100.00
8075;BME280;4080;42.676;23.372;2023-05-07T03:10:39;95300.84;;;10.84;100.00
8075;BME280;4080;42.676;23.372;2023-05-07T03:13:06;95304.00;;;10.86;100.00
8075;BME280;4080;42.676;23.372;2023-05-07T03:15:33;95303.47;;;10.79;100.00
8075;BME280;4080;42.676;23.372;2023-05-07T03:17:59;95310.34;;;10.85;100.00
8075;BME280;4080;42.676;23.372;2023-05-07T03:20:26;95304.53;;;10.88;100.00
8075;BME280;4080;42.676;23.372;2023-05-07T03:22:54;95303.22;;;10.81;100.00
8075;BME280;4080;42.676;23.372;2023-05-07T03:25:21;95321.16;;;10.89;100.00
8075;BME280;4080;42.676;23.372;2023-05-07T03:27:47;95319.84;;;10.92;100.00
8075;BME280;4080;42.676;23.372;2023-05-07T03:30:14;95319.84;;;10.92;100.00
8075;BME280;4080;42.676;23.372;2023-05-07T03:32:41;95324.34;;;10.91;100.00
8075;BME280;4080;42.676;23.372;2023-05-07T03:35:08;95315.09;;;10.88;100.00
8075;BME280;4080;42.676;23.372;2023-05-07T03:37:35;95271.78;;;10.59;100.00
8075;BME280;4080;42.676;23.372;2023-05-07T03:40:04;95324.59;;;10.95;100.00
8075;BME280;4080;42.676;23.372;2023-05-07T03:42:31;95320.91;;;11.01;100.00
8075;BME280;4080;42.676;23.372;2023-05-07T03:44:57;95330.97;;;11.09;100.00
8075;BME280;4080;42.676;23.372;2023-05-07T03:47:24;95333.09;;;11.17;100.00
8075;BME280;4080;42.676;23.372;2023-05-07T03:49:51;95337.84;;;11.25;100.00
8075;BME280;4080;42.676;23.372;2023-05-07T03:52:19;95341.00;;;11.32;100.00
8075;BME280;4080;42.676;23.372;2023-05-07T03:54:49;95296.13;;;11.07;100.00
8075;BME280;4080;42.676;23.372;2023-05-07T03:57:17;95336.56;;;11.33;100.00
8075;BME280;4080;42.676;23.372;2023-05-07T03:59:44;95336.25;;;11.29;100.00
8075;BME280;4080;42.676;23.372;2023-05-07T04:02:10;95346.59;;;11.36;100.00
8075;BME280;4080;42.676;23.372;2023-05-07T04:04:37;95344.97;;;11.50;100.00
8075;BME280;4080;42.676;23.372;2023-05-07T04:07:04;95347.91;;;11.64;100.00
8075;BME280;4080;42.676;23.372;2023-05-07T04:09:31;95362.69;;;11.80;100.00
8075;BME280;4080;42.676;23.372;2023-05-07T04:11:57;95361.63;;;11.91;100.00
8075;BME280;4080;42.676;23.372;2023-05-07T04:14:25;95364.81;;;11.98;100.00
8075;BME280;4080;42.676;23.372;2023-05-07T04:16:52;95368.50;;;12.02;100.00
8075;BME280;4080;42.676;23.372;2023-05-07T04:19:19;95375.88;;;12.05;100.00
8075;BME280;4080;42.676;23.372;2023-05-07T04:21:45;95373.47;;;12.14;100.00
8075;BME280;4080;42.676;23.372;2023-05-07T04:24:12;95391.19;;;12.29;100.00
8075;BME280;4080;42.676;23.372;2023-05-07T04:26:39;95388.47;;;12.44;100.00
8075;BME280;4080;42.676;23.372;2023-05-07T04:29:06;95394.25;;;12.61;100.00
8075;BME280;4080;42.676;23.372;2023-05-07T04:31:34;95388.03;;;12.91;100.00
8075;BME280;4080;42.676;23.372;2023-05-07T04:34:00;95362.25;;;13.07;100.00
8075;BME280;4080;42.676;23.372;2023-05-07T04:36:27;95397.91;;;13.69;100.00
8075;BME280;4080;42.676;23.372;2023-05-07T04:38:54;95402.03;;;13.85;100.00
8075;BME280;4080;42.676;23.372;2023-05-07T04:41:21;95407.78;;;13.92;100.00
8075;BME280;4080;42.676;23.372;2023-05-07T04:43:47;95415.59;;;14.08;100.00
8075;BME280;4080;42.676;23.372;2023-05-07T04:46:14;95410.78;;;14.39;100.00
8075;BME280;4080;42.676;23.372;2023-05-07T04:48:42;95412.81;;;14.76;100.00
8075;BME280;4080;42.676;23.372;2023-05-07T04:51:09;95422.06;;;15.02;100.00
8075;BME280;4080;42.676;23.372;2023-05-07T04:53:37;95420.28;;;15.16;100.00
8075;BME280;4080;42.676;23.372;2023-05-07T04:56:04;95382.28;;;15.16;100.00
8075;BME280;4080;42.676;23.372;2023-05-07T04:58:30;95419.59;;;15.67;100.00
8075;BME280;4080;42.676;23.372;2023-05-07T05:00:57;95413.63;;;15.75;100.00
8075;BME280;4080;42.676;23.372;2023-05-07T05:03:24;95423.28;;;16.04;100.00
8075;BME280;4080;42.676;23.372;2023-05-07T05:05:52;95385.41;;;15.93;100.00
8075;BME280;4080;42.676;23.372;2023-05-07T05:08:19;95414.75;;;16.34;100.00
8075;BME280;4080;42.676;23.372;2023-05-07T05:10:45;95420.22;;;16.57;100.00
8075;BME280;4080;42.676;23.372;2023-05-07T05:13:14;95415.50;;;16.81;100.00
8075;BME280;4080;42.676;23.372;2023-05-07T05:15:40;95415.41;;;17.00;100.00
8075;BME280;4080;42.676;23.372;2023-05-07T05:18:07;95429.41;;;17.05;100.00
8075;BME280;4080;42.676;23.372;2023-05-07T05:20:33;95426.44;;;17.21;100.00
8075;BME280;4080;42.676;23.372;2023-05-07T05:23:01;95420.56;;;17.46;100.00
8075;BME280;4080;42.676;23.372;2023-05-07T05:25:28;95417.53;;;17.61;100.00
8075;BME280;4080;42.676;23.372;2023-05-07T05:27:55;95429.19;;;17.65;100.00
8075;BME280;4080;42.676;23.372;2023-05-07T05:30:22;95421.88;;;17.71;100.00
8075;BME280;4080;42.676;23.372;2023-05-07T05:32:48;95425.34;;;17.94;100.00
8075;BME280;4080;42.676;23.372;2023-05-07T05:35:15;95427.13;;;18.29;100.00
8075;BME280;4080;42.676;23.372;2023-05-07T05:37:42;95430.25;;;18.54;100.00
8075;BME280;4080;42.676;23.372;2023-05-07T05:40:11;95425.19;;;18.75;100.00
8075;BME280;4080;42.676;23.372;2023-05-07T05:42:38;95437.19;;;18.95;100.00
8075;BME280;4080;42.676;23.372;2023-05-07T05:45:06;95399.75;;;18.86;100.00
8075;BME280;4080;42.676;23.372;2023-05-07T05:47:32;95433.66;;;19.25;100.00
8075;BME280;4080;42.676;23.372;2023-05-07T05:49:59;95432.28;;;19.36;100.00
8075;BME280;4080;42.676;23.372;2023-05-07T05:52:26;95431.22;;;19.54;100.00
8075;BME280;4080;42.676;23.372;2023-05-07T05:54:53;95421.47;;;19.67;100.00
8075;BME280;4080;42.676;23.372;2023-05-07T05:57:21;95430.59;;;19.83;100.00
8075;BME280;4080;42.676;23.372;2023-05-07T05:59:48;95427.94;;;19.92;100.00
8075;BME280;4080;42.676;23.372;2023-05-07T06:02:14;95427.91;;;20.01;100.00
8075;BME280;4080;42.676;23.372;2023-05-07T06:04:41;95437.50;;;20.19;100.00
8075;BME280;4080;42.676;23.372;2023-05-07T06:07:08;95435.09;;;20.35;100.00
8075;BME280;4080;42.676;23.372;2023-05-07T06:09:35;95444.88;;;20.48;100.00
8075;BME280;4080;42.676;23.372;2023-05-07T06:12:01;95439.97;;;20.59;100.00
8075;BME280;4080;42.676;23.372;2023-05-07T06:14:30;95437.75;;;20.61;100.00
8075;BME280;4080;42.676;23.372;2023-05-07T06:16:56;95432.25;;;20.49;100.00
8075;BME280;4080;42.676;23.372;2023-05-07T06:19:23;95433.31;;;20.65;100.00
8075;BME280;4080;42.676;23.372;2023-05-07T06:21:51;95436.22;;;20.51;100.00
8075;BME280;4080;42.676;23.372;2023-05-07T06:24:18;95426.94;;;20.40;100.00
8075;BME280;4080;42.676;23.372;2023-05-07T06:26:45;95428.00;;;20.48;100.00
8075;BME280;4080;42.676;23.372;2023-05-07T06:29:12;95425.59;;;20.63;100.00
8075;BME280;4080;42.676;23.372;2023-05-07T06:31:40;95421.63;;;20.69;100.00
8075;BME280;4080;42.676;23.372;2023-05-07T06:34:07;95406.50;;;20.65;100.00
8075;BME280;4080;42.676;23.372;2023-05-07T06:36:34;95424.25;;;20.87;100.00
8075;BME280;4080;42.676;23.372;2023-05-07T06:39:00;95425.31;;;20.94;100.00
8075;BME280;4080;42.676;23.372;2023-05-07T06:41:27;95417.13;;;21.20;100.00
8075;BME280;4080;42.676;23.372;2023-05-07T06:43:54;95417.50;;;21.39;100.00
8075;BME280;4080;42.676;23.372;2023-05-07T06:46:21;95421.84;;;21.53;100.00
8075;BME280;4080;42.676;23.372;2023-05-07T06:48:49;95377.47;;;21.55;100.00
8075;BME280;4080;42.676;23.372;2023-05-07T06:51:15;95410.72;;;22.05;100.00
8075;BME280;4080;42.676;23.372;2023-05-07T06:53:42;95408.38;;;22.15;98.59
8075;BME280;4080;42.676;23.372;2023-05-07T06:56:08;95401.53;;;21.64;100.00
8075;BME280;4080;42.676;23.372;2023-05-07T06:58:36;95402.38;;;21.35;100.00
8075;BME280;4080;42.676;23.372;2023-05-07T07:01:03;95392.81;;;20.96;100.00
8075;BME280;4080;42.676;23.372;2023-05-07T07:03:30;95404.41;;;21.08;100.00
8075;BME280;4080;42.676;23.372;2023-05-07T07:05:58;95405.47;;;21.16;100.00
8075;BME280;4080;42.676;23.372;2023-05-07T07:08:27;95407.97;;;21.21;100.00
8075;BME280;4080;42.676;23.372;2023-05-07T07:10:53;95412.28;;;21.64;100.00
8075;BME280;4080;42.676;23.372;2023-05-07T07:13:20;95396.31;;;22.00;100.00
8075;BME280;4080;42.676;23.372;2023-05-07T07:15:47;95401.63;;;22.42;100.00
8075;BME280;4080;42.676;23.372;2023-05-07T07:18:13;95404.56;;;22.61;98.47
8075;BME280;4080;42.676;23.372;2023-05-07T07:20:40;95396.94;;;22.63;98.54
8075;BME280;4080;42.676;23.372;2023-05-07T07:23:08;95400.69;;;22.83;97.78
8075;BME280;4080;42.676;23.372;2023-05-07T07:25:35;95397.34;;;22.86;96.41
8075;BME280;4080;42.676;23.372;2023-05-07T07:28:02;95357.19;;;22.69;96.98
8075;BME280;4080;42.676;23.372;2023-05-07T07:30:28;95399.72;;;23.00;96.84
8075;BME280;4080;42.676;23.372;2023-05-07T07:32:55;95392.19;;;23.06;95.82
8075;BME280;4080;42.676;23.372;2023-05-07T07:35:27;95397.13;;;23.04;94.84
8075;BME280;4080;42.676;23.372;2023-05-07T07:37:54;95395.22;;;23.04;95.48
8075;BME280;4080;42.676;23.372;2023-05-07T07:40:23;95394.53;;;23.07;95.72
8075;BME280;4080;42.676;23.372;2023-05-07T07:42:51;95399.66;;;23.37;94.17
8075;BME280;4080;42.676;23.372;2023-05-07T07:45:18;95408.94;;;23.51;92.59
8075;BME280;4080;42.676;23.372;2023-05-07T07:47:45;95417.03;;;23.64;92.16
8075;BME280;4080;42.676;23.372;2023-05-07T07:50:12;95407.00;;;23.76;91.49
8075;BME280;4080;42.676;23.372;2023-05-07T07:52:38;95373.34;;;23.70;91.20
8075;BME280;4080;42.676;23.372;2023-05-07T07:55:06;95408.31;;;24.10;91.45
8075;BME280;4080;42.676;23.372;2023-05-07T07:57:35;95404.84;;;24.10;91.21
8075;BME280;4080;42.676;23.372;2023-05-07T08:00:01;95407.16;;;23.96;90.33
8075;BME280;4080;42.676;23.372;2023-05-07T08:02:28;95405.50;;;23.91;92.77
8075;BME280;4080;42.676;23.372;2023-05-07T08:04:55;95401.97;;;24.03;90.96
8075;BME280;4080;42.676;23.372;2023-05-07T08:07:22;95399.31;;;24.19;89.82
8075;BME280;4080;42.676;23.372;2023-05-07T08:09:48;95402.19;;;24.26;87.20
8075;BME280;4080;42.676;23.372;2023-05-07T08:12:15;95385.84;;;24.19;87.88
8075;BME280;4080;42.676;23.372;2023-05-07T08:14:43;95399.72;;;24.33;86.85
8075;BME280;4080;42.676;23.372;2023-05-07T08:17:10;95367.50;;;24.24;86.57
8075;BME280;4080;42.676;23.372;2023-05-07T08:19:36;95360.16;;;24.37;87.44
8075;BME280;4080;42.676;23.372;2023-05-07T08:22:03;95393.47;;;24.76;86.78
8075;BME280;4080;42.676;23.372;2023-05-07T08:24:30;95391.03;;;24.87;86.04
8075;BME280;4080;42.676;23.372;2023-05-07T08:26:57;95386.94;;;24.77;85.05
8075;BME280;4080;42.676;23.372;2023-05-07T08:29:24;95385.38;;;24.76;86.22
8075;BME280;4080;42.676;23.372;2023-05-07T08:31:52;95390.44;;;24.93;85.88
8075;BME280;4080;42.676;23.372;2023-05-07T08:34:19;95389.56;;;24.89;83.15
8075;BME280;4080;42.676;23.372;2023-05-07T08:36:46;95387.50;;;24.98;82.48
8075;BME280;4080;42.676;23.372;2023-05-07T08:39:14;95347.78;;;24.83;81.91
8075;BME280;4080;42.676;23.372;2023-05-07T08:41:44;95381.16;;;25.26;82.57
8075;BME280;4080;42.676;23.372;2023-05-07T08:44:12;95336.53;;;24.97;77.08
8075;BME280;4080;42.676;23.372;2023-05-07T08:46:40;95379.13;;;24.88;78.71
8075;BME280;4080;42.676;23.372;2023-05-07T08:49:10;95376.25;;;24.65;79.84
8075;BME280;4080;42.676;23.372;2023-05-07T08:51:37;95369.63;;;24.78;81.06
8075;BME280;4080;42.676;23.372;2023-05-07T08:54:04;95374.59;;;25.07;79.40
8075;BME280;4080;42.676;23.372;2023-05-07T08:56:32;95377.66;;;25.41;78.23
8075;BME280;4080;42.676;23.372;2023-05-07T08:58:59;95373.75;;;25.74;76.83
8075;BME280;4080;42.676;23.372;2023-05-07T09:01:26;95367.97;;;25.94;73.27
8075;BME280;4080;42.676;23.372;2023-05-07T09:03:53;95352.53;;;25.95;71.82
8075;BME280;4080;42.676;23.372;2023-05-07T09:06:21;95371.16;;;26.00;68.42
8075;BME280;4080;42.676;23.372;2023-05-07T09:08:51;95359.97;;;26.02;68.58
8075;BME280;4080;42.676;23.372;2023-05-07T09:11:20;95353.25;;;25.92;65.47
8075;BME280;4080;42.676;23.372;2023-05-07T09:13:48;95356.72;;;26.12;67.22
8075;BME280;4080;42.676;23.372;2023-05-07T09:16:15;95343.13;;;26.31;66.59
8075;BME280;4080;42.676;23.372;2023-05-07T09:18:42;95315.69;;;26.06;64.26
8075;BME280;4080;42.676;23.372;2023-05-07T09:21:10;95343.06;;;26.27;65.25
8075;BME280;4080;42.676;23.372;2023-05-07T09:23:39;95348.47;;;26.47;64.12
8075;BME280;4080;42.676;23.372;2023-05-07T09:26:06;95346.75;;;26.35;65.30
8075;BME280;4080;42.676;23.372;2023-05-07T09:28:38;95339.88;;;26.22;66.17
8075;BME280;4080;42.676;23.372;2023-05-07T09:31:05;95331.41;;;26.43;65.38
8075;BME280;4080;42.676;23.372;2023-05-07T09:33:31;95332.66;;;26.49;63.64
8075;BME280;4080;42.676;23.372;2023-05-07T09:35:58;95329.53;;;26.47;61.49
8075;BME280;4080;42.676;23.372;2023-05-07T09:38:28;95334.00;;;26.36;61.94
8075;BME280;4080;42.676;23.372;2023-05-07T09:41:03;95327.13;;;26.42;61.99
8075;BME280;4080;42.676;23.372;2023-05-07T09:43:32;95314.81;;;26.44;60.55
8075;BME280;4080;42.676;23.372;2023-05-07T09:46:06;95307.91;;;26.47;61.79
8075;BME280;4080;42.676;23.372;2023-05-07T09:48:36;95292.44;;;26.70;59.90
8075;BME280;4080;42.676;23.372;2023-05-07T09:51:09;95285.91;;;26.75;57.79
8075;BME280;4080;42.676;23.372;2023-05-07T09:53:38;95318.25;;;27.17;59.47
8075;BME280;4080;42.676;23.372;2023-05-07T09:56:07;95315.59;;;27.50;57.03
8075;BME280;4080;42.676;23.372;2023-05-07T09:58:36;95314.53;;;27.89;57.81
8075;BME280;4080;42.676;23.372;2023-05-07T10:01:04;95322.59;;;28.19;53.91
8075;BME280;4080;42.676;23.372;2023-05-07T10:03:31;95316.81;;;28.24;50.44
8075;BME280;4080;42.676;23.372;2023-05-07T10:06:00;95313.72;;;28.22;49.39
8075;BME280;4080;42.676;23.372;2023-05-07T10:08:28;95317.81;;;28.08;48.69
8075;BME280;4080;42.676;23.372;2023-05-07T10:10:56;95303.13;;;27.72;52.79
8075;BME280;4080;42.676;23.372;2023-05-07T10:13:24;95303.53;;;27.44;54.00
8075;BME280;4080;42.676;23.372;2023-05-07T10:15:51;95292.56;;;27.34;51.64
8075;BME280;4080;42.676;23.372;2023-05-07T10:18:19;95296.00;;;27.31;52.38
8075;BME280;4080;42.676;23.372;2023-05-07T10:20:50;95290.56;;;27.27;51.14
8075;BME280;4080;42.676;23.372;2023-05-07T10:23:23;95292.66;;;27.11;48.72
8075;BME280;4080;42.676;23.372;2023-05-07T10:25:50;95286.47;;;26.61;49.84
8075;BME280;4080;42.676;23.372;2023-05-07T10:28:17;95292.09;;;26.49;49.61
8075;BME280;4080;42.676;23.372;2023-05-07T10:30:58;95284.75;;;26.49;48.94
8075;BME280;4080;42.676;23.372;2023-05-07T10:33:29;95278.25;;;26.54;49.81
8075;BME280;4080;42.676;23.372;2023-05-07T10:35:58;95252.69;;;26.28;49.65
8075;BME280;4080;42.676;23.372;2023-05-07T10:38:27;95252.38;;;26.56;50.19
8075;BME280;4080;42.676;23.372;2023-05-07T10:40:54;95266.28;;;26.55;48.76
8075;BME280;4080;42.676;23.372;2023-05-07T10:43:21;95264.13;;;26.18;50.67
8075;BME280;4080;42.676;23.372;2023-05-07T10:46:13;95261.06;;;26.43;51.78
8075;BME280;4080;42.676;23.372;2023-05-07T10:49:11;95256.38;;;26.92;51.40
8075;BME280;4080;42.676;23.372;2023-05-07T10:51:38;95260.44;;;27.32;49.84
8075;BME280;4080;42.676;23.372;2023-05-07T10:54:21;95221.84;;;27.42;49.21
8075;BME280;4080;42.676;23.372;2023-05-07T10:56:49;95250.09;;;27.75;48.65
8075;BME280;4080;42.676;23.372;2023-05-07T10:59:36;95258.19;;;27.71;47.58
8075;BME280;4080;42.676;23.372;2023-05-07T11:02:10;95263.19;;;27.36;48.30
8075;BME280;4080;42.676;23.372;2023-05-07T11:04:39;95232.47;;;26.68;49.44
8075;BME280;4080;42.676;23.372;2023-05-07T11:07:23;95255.31;;;26.44;50.85
8075;BME280;4080;42.676;23.372;2023-05-07T11:10:04;95255.72;;;26.46;51.35
8075;BME280;4080;42.676;23.372;2023-05-07T11:12:53;95256.78;;;26.65;51.50
8075;BME280;4080;42.676;23.372;2023-05-07T11:15:43;95212.44;;;26.46;50.43
8075;BME280;4080;42.676;23.372;2023-05-07T11:18:13;95248.44;;;26.77;48.51
8075;BME280;4080;42.676;23.372;2023-05-07T11:20:54;95219.94;;;26.56;50.13
8075;BME280;4080;42.676;23.372;2023-05-07T11:26:42;95247.25;;;26.48;50.58
8075;BME280;4080;42.676;23.372;2023-05-07T11:29:14;95209.06;;;26.53;50.35
8075;BME280;4080;42.676;23.372;2023-05-07T11:31:41;95218.94;;;26.95;49.79
8075;BME280;4080;42.676;23.372;2023-05-07T11:34:09;95244.88;;;27.26;47.45
8075;BME280;4080;42.676;23.372;2023-05-07T11:36:41;95200.34;;;27.23;47.04
8075;BME280;4080;42.676;23.372;2023-05-07T11:39:26;95218.69;;;27.37;46.80
8075;BME280;4080;42.676;23.372;2023-05-07T11:41:53;95235.50;;;26.93;46.70
8075;BME280;4080;42.676;23.372;2023-05-07T11:44:20;95227.47;;;26.97;47.42
8075;BME280;4080;42.676;23.372;2023-05-07T11:46:47;95230.81;;;27.16;46.48
8075;BME280;4080;42.676;23.372;2023-05-07T11:49:16;95223.50;;;27.54;44.86
8075;BME280;4080;42.676;23.372;2023-05-07T11:51:43;95236.19;;;27.80;43.63
8075;BME280;4080;42.676;23.372;2023-05-07T11:54:15;95234.81;;;27.97;44.50
8075;BME280;4080;42.676;23.372;2023-05-07T11:56:43;95228.66;;;28.00;42.57
8075;BME280;4080;42.676;23.372;2023-05-07T11:59:10;95229.53;;;28.11;42.91
8075;BME280;4080;42.676;23.372;2023-05-07T12:01:37;95232.69;;;28.17;42.82
8075;BME280;4080;42.676;23.372;2023-05-07T12:04:04;95226.75;;;28.04;41.72
8075;BME280;4080;42.676;23.372;2023-05-07T12:06:36;95212.50;;;27.70;41.84
8075;BME280;4080;42.676;23.372;2023-05-07T12:09:02;95208.22;;;27.35;44.04
8075;BME280;4080;42.676;23.372;2023-05-07T12:11:30;95210.78;;;26.65;44.82
8075;BME280;4080;42.676;23.372;2023-05-07T12:13:56;95202.72;;;26.42;47.22
8075;BME280;4080;42.676;23.372;2023-05-07T12:16:23;95201.53;;;26.66;46.10
8075;BME280;4080;42.676;23.372;2023-05-07T12:18:50;95200.47;;;26.74;45.70
8075;BME280;4080;42.676;23.372;2023-05-07T12:21:20;95200.22;;;26.56;46.79
8075;BME280;4080;42.676;23.372;2023-05-07T12:23:48;95197.22;;;26.35;47.99
8075;BME280;4080;42.676;23.372;2023-05-07T12:26:15;95195.84;;;26.48;47.42
8075;BME280;4080;42.676;23.372;2023-05-07T12:28:42;95192.25;;;26.67;47.69
8075;BME280;4080;42.676;23.372;2023-05-07T12:31:08;95188.63;;;26.85;46.73
8075;BME280;4080;42.676;23.372;2023-05-07T12:33:35;95180.00;;;27.03;46.10
8075;BME280;4080;42.676;23.372;2023-05-07T12:36:05;95177.84;;;27.19;45.86
8075;BME280;4080;42.676;23.372;2023-05-07T12:38:36;95179.00;;;27.18;43.13
8075;BME280;4080;42.676;23.372;2023-05-07T12:41:06;95175.06;;;27.12;42.34
8075;BME280;4080;42.676;23.372;2023-05-07T12:43:33;95171.13;;;27.06;42.90
8075;BME280;4080;42.676;23.372;2023-05-07T12:46:01;95161.03;;;27.03;43.13
8075;BME280;4080;42.676;23.372;2023-05-07T12:48:28;95178.22;;;27.17;41.96
8075;BME280;4080;42.676;23.372;2023-05-07T12:50:56;95173.53;;;27.14;41.33
8075;BME280;4080;42.676;23.372;2023-05-07T12:53:24;95155.66;;;27.06;41.67
8075;BME280;4080;42.676;23.372;2023-05-07T12:55:52;95156.03;;;27.05;41.59
8075;BME280;4080;42.676;23.372;2023-05-07T12:58:25;95142.47;;;27.01;40.71
8075;BME280;4080;42.676;23.372;2023-05-07T13:00:52;95158.34;;;27.03;39.73
8075;BME280;4080;42.676;23.372;2023-05-07T13:03:24;95152.44;;;26.97;40.29
8075;BME280;4080;42.676;23.372;2023-05-07T13:05:51;95131.06;;;26.88;40.17
8075;BME280;4080;42.676;23.372;2023-05-07T13:08:28;95145.66;;;27.10;39.72
8075;BME280;4080;42.676;23.372;2023-05-07T13:10:56;95141.31;;;27.02;39.44
8075;BME280;4080;42.676;23.372;2023-05-07T13:13:24;95140.72;;;26.89;39.61